Time;durP1;ratioP1;P1;durP2;ratioP2;P2;SDS_P1;SDS_P2;PMS_P1;PMS_P2;Temp;Humidity;BMP_temperature;BMP_pressure;BME280_temperature;BME280_humidity;BME280_pressure;Samples;Min_cycle;Max_cycle;Signal;HPM_P1;HPM_P2
2023/06/13 00:01:03;;;;;;;8.07;7.27;;;;;;;18.75;100.00;94387.44;5054712;28;20449;-82
2023/06/13 00:03:33;;;;;;;13.60;7.90;;;;;;;18.78;100.00;94384.38;5054116;28;20451;-81
2023/06/13 00:06:01;;;;;;;8.47;7.03;;;;;;;18.85;100.00;94384.47;5054632;28;20434;-82
2023/06/13 00:08:31;;;;;;;7.93;7.23;;;;;;;18.82;100.00;94368.91;5054651;28;20537;-83
2023/06/13 00:10:58;;;;;;;10.97;7.90;;;;;;;18.82;100.00;94367.06;5054496;28;20499;-82
2023/06/13 00:13:25;;;;;;;8.30;7.60;;;;;;;18.83;100.00;94371.38;5019186;28;20449;-82
2023/06/13 00:15:54;;;;;;;8.00;7.30;;;;;;;18.84;100.00;94373.00;5054272;28;20957;-82
2023/06/13 00:18:22;;;;;;;8.50;7.50;;;;;;;18.86;100.00;94373.63;5054298;28;20476;-82
2023/06/13 00:20:54;;;;;;;9.23;6.63;;;;;;;18.85;100.00;94368.50;5019520;28;20524;-82
2023/06/13 00:23:21;;;;;;;6.10;5.50;;;;;;;18.84;100.00;94361.56;5054348;28;20478;-82
2023/06/13 00:25:48;;;;;;;8.90;5.60;;;;;;;18.82;100.00;94364.41;5054022;28;20454;-82
2023/06/13 00:28:15;;;;;;;7.33;6.67;;;;;;;18.81;100.00;94367.25;5054304;28;20488;-82
2023/06/13 00:30:41;;;;;;;7.67;6.47;;;;;;;18.83;100.00;94370.53;5053685;28;20543;-82
2023/06/13 00:33:10;;;;;;;7.13;6.57;;;;;;;18.79;100.00;94358.63;5054102;28;20441;-82
2023/06/13 00:35:37;;;;;;;7.10;6.20;;;;;;;18.80;100.00;94362.97;5053083;28;20512;-82
2023/06/13 00:38:06;;;;;;;6.33;5.80;;;;;;;18.75;100.00;94373.31;5053813;28;20455;-82
2023/06/13 00:40:33;;;;;;;7.77;7.03;;;;;;;18.67;100.00;94370.81;5053569;28;20433;-82
2023/06/13 00:43:00;;;;;;;7.03;6.00;;;;;;;18.70;100.00;94370.41;5053712;28;20531;-81
2023/06/13 00:45:29;;;;;;;7.40;6.23;;;;;;;18.72;100.00;94363.06;5053696;28;20440;-82
2023/06/13 00:47:59;;;;;;;6.80;6.20;;;;;;;18.72;100.00;94347.13;5054047;28;20521;-81
2023/06/13 00:50:27;;;;;;;9.73;7.00;;;;;;;18.74;100.00;94347.75;5053761;28;20477;-82
2023/06/13 00:52:55;;;;;;;6.53;5.93;;;;;;;18.75;100.00;94362.69;5053491;28;20546;-81
2023/06/13 01:02:15;;;;;;;6.30;5.80;;;;;;;18.57;100.00;94356.00;5052406;28;20549;-82
2023/06/13 01:04:41;;;;;;;7.00;6.40;;;;;;;18.55;100.00;94350.06;5053535;28;20447;-82
2023/06/13 01:07:11;;;;;;;7.10;6.40;;;;;;;18.56;100.00;94350.88;5053590;28;20533;-82
2023/06/13 01:09:37;;;;;;;7.80;5.80;;;;;;;18.56;100.00;94358.84;5035393;28;20480;-82
2023/06/13 01:12:17;;;;;;;6.90;6.00;;;;;;;18.54;100.00;94351.06;5053437;28;20496;-81
2023/06/13 01:14:53;;;;;;;6.40;5.80;;;;;;;18.54;100.00;94351.06;5053241;28;20437;-82
2023/06/13 01:17:24;;;;;;;10.20;6.00;;;;;;;18.57;100.00;94357.81;5053502;28;20435;-82
2023/06/13 01:26:48;;;;;;;9.00;6.17;;;;;;;18.47;100.00;94359.97;5053007;28;20448;-82
2023/06/13 01:29:16;;;;;;;10.33;6.50;;;;;;;18.44;100.00;94353.22;5053218;28;20446;-82
2023/06/13 01:31:46;;;;;;;11.50;6.77;;;;;;;18.44;100.00;94361.19;5053234;28;20476;-82
2023/06/13 01:34:13;;;;;;;6.50;5.90;;;;;;;18.43;100.00;94356.88;5053133;28;20505;-82
2023/06/13 01:36:40;;;;;;;6.40;5.80;;;;;;;18.41;100.00;94358.91;5053197;28;20458;-82
2023/06/13 01:39:07;;;;;;;6.73;5.83;;;;;;;18.42;100.00;94349.09;5018259;28;20451;-82
2023/06/13 01:41:34;;;;;;;7.60;6.27;;;;;;;18.40;100.00;94357.25;5053071;28;20437;-81
2023/06/13 01:44:05;;;;;;;8.20;6.63;;;;;;;18.38;100.00;94355.81;5052604;28;20482;-82
2023/06/13 01:46:36;;;;;;;6.17;5.67;;;;;;;18.36;100.00;94357.84;5052788;28;20435;-82
2023/06/13 01:49:23;;;;;;;6.47;5.73;;;;;;;18.34;100.00;94354.56;5057250;28;20434;-82
2023/06/13 01:52:36;;;;;;;11.17;6.33;;;;;;;18.37;100.00;94359.47;5057144;28;20840;-82
2023/06/13 01:55:08;;;;;;;11.07;5.97;;;;;;;18.27;100.00;94363.28;5056865;28;20846;-81
2023/06/13 01:57:41;;;;;;;8.73;6.37;;;;;;;18.25;100.00;94356.53;5057056;28;20445;-81
2023/06/13 02:00:14;;;;;;;7.30;6.60;;;;;;;18.25;100.00;94351.22;5056862;28;20476;-82
2023/06/13 02:02:42;;;;;;;7.23;6.60;;;;;;;18.20;100.00;94357.06;5021560;28;21092;-82
2023/06/13 02:05:11;;;;;;;8.27;6.00;;;;;;;18.19;100.00;94354.59;5056369;28;20479;-82
2023/06/13 02:07:38;;;;;;;11.43;5.60;;;;;;;18.15;100.00;94353.34;5056947;28;20516;-81
2023/06/13 02:10:05;;;;;;;7.63;6.07;;;;;;;18.13;100.00;94358.84;5056818;28;20444;-81
2023/06/13 02:12:33;;;;;;;6.53;5.90;;;;;;;18.14;100.00;94351.69;5056487;28;20490;-82
2023/06/13 02:15:00;;;;;;;8.87;6.30;;;;;;;18.12;100.00;94351.06;5056686;28;20446;-82
2023/06/13 02:17:28;;;;;;;8.70;6.60;;;;;;;18.11;100.00;94349.44;5056622;28;20444;-82
2023/06/13 02:19:55;;;;;;;6.87;6.17;;;;;;;18.10;100.00;94356.56;5056584;28;20452;-83
2023/06/13 02:22:22;;;;;;;8.33;6.50;;;;;;;18.04;100.00;94349.38;5056692;28;20484;-82
2023/06/13 02:24:49;;;;;;;7.03;5.97;;;;;;;18.07;100.00;94348.16;5056507;28;20486;-82
2023/06/13 02:27:16;;;;;;;7.10;6.00;;;;;;;18.05;100.00;94351.00;5056475;28;20433;-82
2023/06/13 02:29:44;;;;;;;12.37;5.97;;;;;;;18.01;100.00;94351.56;5056362;28;20501;-83
2023/06/13 02:32:10;;;;;;;11.67;6.23;;;;;;;17.99;100.00;94356.25;5056650;28;20522;-82
2023/06/13 02:34:39;;;;;;;6.90;6.27;;;;;;;17.98;100.00;94358.09;5056443;28;20922;-83
2023/06/13 02:37:06;;;;;;;9.03;6.33;;;;;;;17.93;100.00;94356.00;5056441;28;20453;-82
2023/06/13 02:39:33;;;;;;;7.37;5.67;;;;;;;17.96;100.00;94362.78;5056401;28;20432;-83
2023/06/13 02:41:59;;;;;;;9.30;5.90;;;;;;;17.94;100.00;94362.97;5056079;28;20441;-83
2023/06/13 02:44:26;;;;;;;8.53;5.73;;;;;;;17.95;100.00;94359.28;5056299;28;20516;-83
2023/06/13 02:46:54;;;;;;;6.80;6.20;;;;;;;17.95;100.00;94367.25;5055845;28;20853;-83
2023/06/13 02:49:21;;;;;;;7.60;6.80;;;;;;;17.93;100.00;94371.94;5055962;28;20447;-82
2023/06/13 02:51:49;;;;;;;6.87;6.10;;;;;;;17.88;100.00;94366.34;5020907;28;20456;-82
2023/06/13 02:54:16;;;;;;;5.93;5.43;;;;;;;17.90;100.00;94374.13;5055756;28;20451;-82
2023/06/13 02:56:42;;;;;;;9.83;6.40;;;;;;;17.87;100.00;94370.00;5055011;28;20445;-82
2023/06/13 02:59:09;;;;;;;10.30;6.53;;;;;;;17.87;100.00;94370.00;5055227;28;20965;-86
2023/06/13 03:01:36;;;;;;;9.10;6.90;;;;;;;17.83;100.00;94368.75;5056700;28;20439;-82
2023/06/13 03:04:03;;;;;;;6.37;5.53;;;;;;;17.85;100.00;94366.72;5055453;28;20481;-83
2023/06/13 03:06:31;;;;;;;7.80;6.53;;;;;;;17.86;100.00;94367.53;5053723;28;20535;-82
2023/06/13 03:08:59;;;;;;;7.83;6.17;;;;;;;17.86;100.00;94365.72;5036372;28;20793;-83
2023/06/13 03:11:26;;;;;;;12.20;6.40;;;;;;;17.84;100.00;94380.19;5035910;28;20440;-82
2023/06/13 03:13:52;;;;;;;7.03;6.33;;;;;;;17.87;100.00;94375.31;5042257;28;20836;-82
2023/06/13 03:16:21;;;;;;;17.53;6.67;;;;;;;17.89;100.00;94373.28;5055406;28;20439;-81
2023/06/13 03:18:48;;;;;;;8.03;6.57;;;;;;;17.90;100.00;94380.25;5055156;28;20968;-83
2023/06/13 03:21:15;;;;;;;14.60;6.57;;;;;;;17.93;100.00;94379.06;5055120;28;20445;-81
2023/06/13 03:23:42;;;;;;;6.47;5.73;;;;;;;17.99;100.00;94382.81;5053366;28;20522;-81
2023/06/13 03:26:10;;;;;;;9.63;5.87;;;;;;;18.56;100.00;94377.44;5055058;28;20452;-82
2023/06/13 03:28:37;;;;;;;13.13;6.00;;;;;;;19.19;100.00;94389.81;5055307;28;20441;-81
2023/06/13 03:31:04;;;;;;;17.33;5.47;;;;;;;19.72;99.97;94382.16;5055355;28;20943;-82
2023/06/13 03:33:31;;;;;;;7.33;5.73;;;;;;;20.23;95.43;94384.34;5054929;28;20441;-82
2023/06/13 03:35:57;;;;;;;9.20;4.87;;;;;;;20.67;93.11;94397.16;5055376;28;20499;-82
2023/06/13 03:38:27;;;;;;;5.10;4.63;;;;;;;20.75;88.81;94393.47;5055134;28;20499;-82
2023/06/13 03:40:54;;;;;;;8.03;5.50;;;;;;;20.71;89.49;94392.25;5055252;28;20439;-82
2023/06/13 03:43:22;;;;;;;6.67;5.23;;;;;;;20.66;89.23;94390.19;5035790;28;20482;-81
2023/06/13 03:45:49;;;;;;;5.47;5.07;;;;;;;20.48;88.66;94394.47;5054356;28;20435;-81
2023/06/13 03:48:16;;;;;;;5.87;5.37;;;;;;;20.23;89.23;94399.50;5057847;28;20436;-81
2023/06/13 03:50:43;;;;;;;5.10;4.73;;;;;;;20.03;90.10;94388.81;5058027;28;20437;-81
2023/06/13 03:53:10;;;;;;;7.27;5.10;;;;;;;20.04;92.42;94396.59;5019574;28;20468;-81
2023/06/13 03:55:37;;;;;;;13.17;5.43;;;;;;;20.15;93.27;94397.03;5054010;28;20449;-81
2023/06/13 03:58:04;;;;;;;6.00;5.40;;;;;;;20.27;91.02;94403.44;5054070;28;20446;-81
2023/06/13 04:00:33;;;;;;;10.37;5.00;;;;;;;20.32;90.32;94401.81;5053961;28;20957;-81
2023/06/13 04:03:00;;;;;;;6.07;4.90;;;;;;;20.40;91.08;94401.66;5054082;28;20557;-81
2023/06/13 04:05:27;;;;;;;7.27;5.30;;;;;;;20.48;90.54;94405.94;5054415;28;20442;-82
2023/06/13 04:07:54;;;;;;;8.23;5.40;;;;;;;20.57;91.28;94403.94;5054365;28;20448;-81
2023/06/13 04:10:21;;;;;;;9.00;5.10;;;;;;;20.65;90.97;94409.06;5053094;28;20879;-81
2023/06/13 04:12:48;;;;;;;9.40;5.60;;;;;;;20.68;90.22;94414.81;5054224;28;20457;-81
2023/06/13 04:15:15;;;;;;;8.33;5.23;;;;;;;20.69;89.04;94407.63;5035888;28;20525;-81
2023/06/13 04:17:43;;;;;;;5.93;5.20;;;;;;;20.72;89.80;94415.22;5054357;28;20446;-81
2023/06/13 04:20:10;;;;;;;6.03;5.50;;;;;;;20.88;89.42;94417.50;5052450;28;21011;-81
2023/06/13 04:22:37;;;;;;;10.10;5.70;;;;;;;21.03;87.62;94414.63;5053997;28;20487;-81
2023/06/13 04:25:04;;;;;;;6.87;6.00;;;;;;;21.14;86.55;94415.84;5053236;28;20452;-81
2023/06/13 04:27:32;;;;;;;5.60;5.13;;;;;;;21.23;87.03;94417.28;5052912;28;20456;-81
2023/06/13 04:29:59;;;;;;;8.20;5.13;;;;;;;21.20;86.94;94415.84;5052824;28;20539;-82
2023/06/13 04:32:28;;;;;;;6.80;5.30;;;;;;;21.26;87.02;94414.22;5052750;28;20454;-81
2023/06/13 04:34:58;;;;;;;6.40;5.80;;;;;;;21.31;87.34;94420.56;5053038;28;20954;-81
2023/06/13 04:37:25;;;;;;;8.33;6.57;;;;;;;21.33;86.48;94425.72;5053063;28;20931;-81
2023/06/13 04:39:52;;;;;;;9.17;6.77;;;;;;;21.40;86.20;94423.88;5052676;28;20449;-82
2023/06/13 04:42:24;;;;;;;7.70;7.00;;;;;;;21.43;87.20;94433.31;5052952;28;20488;-81
2023/06/13 04:44:53;;;;;;;7.57;6.03;;;;;;;21.43;87.38;94433.31;5052595;28;20567;-82
2023/06/13 04:47:21;;;;;;;6.57;5.97;;;;;;;21.42;88.14;94432.50;5052861;28;20830;-81
2023/06/13 04:49:47;;;;;;;10.90;6.40;;;;;;;21.47;87.67;94430.00;5052544;28;20482;-82
2023/06/13 04:52:15;;;;;;;6.70;6.10;;;;;;;21.57;87.69;94430.41;5033614;28;20452;-82
2023/06/13 04:54:42;;;;;;;6.27;5.73;;;;;;;21.65;87.63;94432.00;5052370;28;20450;-82
2023/06/13 04:57:09;;;;;;;8.80;6.53;;;;;;;21.96;87.20;94425.97;5052325;28;20451;-81
2023/06/13 04:59:36;;;;;;;9.37;6.37;;;;;;;22.43;85.66;94434.63;5052164;28;20529;-82
2023/06/13 05:02:03;;;;;;;7.67;6.07;;;;;;;22.88;83.25;94437.28;5033102;28;20444;-81
2023/06/13 05:04:29;;;;;;;12.67;6.77;;;;;;;23.20;79.84;94441.56;5051793;28;20487;-81
2023/06/13 05:06:59;;;;;;;9.03;7.73;;;;;;;23.42;77.42;94448.16;5051821;28;20497;-82
2023/06/13 05:09:27;;;;;;;12.30;8.70;;;;;;;23.47;76.75;94460.91;5051989;28;20539;-82
2023/06/13 05:11:54;;;;;;;9.40;8.60;;;;;;;23.39;76.35;94448.59;5051233;28;20480;-81
2023/06/13 05:14:21;;;;;;;10.80;9.67;;;;;;;23.34;77.12;94447.59;5033168;28;20457;-81
2023/06/13 05:16:48;;;;;;;10.50;8.30;;;;;;;23.48;80.61;94441.09;5052068;28;20452;-82
2023/06/13 05:19:15;;;;;;;10.63;9.40;;;;;;;23.72;77.29;94447.50;5052000;28;20531;-82
2023/06/13 05:21:42;;;;;;;10.27;9.23;;;;;;;24.16;76.24;94446.38;5051662;28;20449;-82
2023/06/13 05:24:09;;;;;;;9.03;8.10;;;;;;;24.41;77.04;94449.00;5051944;28;20484;-81
2023/06/13 05:26:37;;;;;;;9.60;8.73;;;;;;;24.42;74.13;94450.63;5018036;28;20507;-81
2023/06/13 05:29:05;;;;;;;9.20;8.27;;;;;;;24.35;73.76;94449.91;5053328;28;20507;-82
2023/06/13 05:31:33;;;;;;;18.13;10.17;;;;;;;24.25;72.96;94457.63;5052807;28;20510;-81
2023/06/13 05:34:01;;;;;;;8.53;7.83;;;;;;;24.14;75.76;94451.16;5017948;28;20498;-82
2023/06/13 05:36:28;;;;;;;10.13;9.10;;;;;;;24.06;76.41;94459.50;5031912;28;20544;-82
2023/06/13 05:38:55;;;;;;;10.80;8.67;;;;;;;23.94;77.08;94450.56;5051373;28;20437;-82
2023/06/13 05:41:22;;;;;;;14.90;8.77;;;;;;;23.86;77.52;94445.50;5051583;28;20514;-81
2023/06/13 05:43:50;;;;;;;12.73;8.77;;;;;;;24.06;76.14;94446.09;5051353;28;20508;-82
2023/06/13 05:46:17;;;;;;;10.93;9.93;;;;;;;24.13;75.25;94446.03;5051441;28;20456;-82
2023/06/13 05:48:43;;;;;;;9.23;8.20;;;;;;;23.97;74.76;94447.41;5051307;28;20805;-82
2023/06/13 05:51:10;;;;;;;8.83;7.77;;;;;;;23.44;75.08;94443.41;5051494;28;20447;-82
2023/06/13 05:53:37;;;;;;;8.50;7.57;;;;;;;23.46;77.05;94440.50;5051376;28;20932;-82
2023/06/13 05:56:04;;;;;;;8.27;6.93;;;;;;;23.49;78.93;94440.06;5051865;28;20790;-82
2023/06/13 05:58:31;;;;;;;10.40;6.67;;;;;;;23.42;77.67;94440.13;5051669;28;20531;-82
2023/06/13 06:01:00;;;;;;;7.00;6.30;;;;;;;23.20;77.56;94451.44;5051834;28;20456;-82
2023/06/13 06:03:26;;;;;;;6.93;6.33;;;;;;;22.90;80.09;94435.22;5051646;28;20490;-82
2023/06/13 06:05:53;;;;;;;10.00;7.00;;;;;;;22.78;80.50;94443.06;5051403;28;20448;-82
2023/06/13 06:08:20;;;;;;;7.20;6.60;;;;;;;22.61;80.79;94440.09;5051732;28;20585;-82
2023/06/13 06:10:47;;;;;;;8.60;7.70;;;;;;;21.94;82.19;94436.03;5051408;28;20488;-82
2023/06/13 06:13:14;;;;;;;8.00;6.63;;;;;;;21.92;84.09;94433.56;5051672;28;20861;-82
2023/06/13 06:15:41;;;;;;;9.30;7.33;;;;;;;21.64;85.98;94435.72;5051444;28;20495;-82
2023/06/13 06:18:09;;;;;;;11.43;6.63;;;;;;;21.44;87.12;94430.44;5016735;28;20986;-82
2023/06/13 06:20:36;;;;;;;16.23;8.73;;;;;;;21.59;89.94;94432.84;5051231;28;20880;-82
2023/06/13 06:23:03;;;;;;;8.87;8.07;;;;;;;22.14;86.81;94428.81;5051496;28;21028;-82
2023/06/13 06:25:30;;;;;;;16.80;8.43;;;;;;;22.58;82.65;94429.00;5051356;28;20475;-82
2023/06/13 06:27:56;;;;;;;8.27;7.47;;;;;;;22.90;82.33;94437.88;5051530;28;20454;-82
2023/06/13 06:30:23;;;;;;;8.63;7.67;;;;;;;23.04;82.76;94436.72;5051919;28;20440;-82
2023/06/13 06:32:51;;;;;;;8.17;7.47;;;;;;;22.89;79.81;94438.91;5052000;28;20993;-82
2023/06/13 06:35:19;;;;;;;8.60;7.80;;;;;;;22.88;81.73;94442.63;5055110;28;20456;-81
2023/06/13 06:37:46;;;;;;;12.87;7.37;;;;;;;22.95;84.16;94432.69;5055097;28;20873;-82
2023/06/13 06:40:13;;;;;;;7.97;7.20;;;;;;;22.89;80.99;94425.53;5055037;28;20439;-82
2023/06/13 06:42:43;;;;;;;7.63;6.60;;;;;;;22.98;82.11;94427.72;5055060;28;20498;-82
2023/06/13 06:45:10;;;;;;;6.90;6.30;;;;;;;23.07;81.19;94425.59;5054527;28;20821;-82
2023/06/13 06:47:37;;;;;;;7.37;6.00;;;;;;;23.03;80.98;94424.38;5054724;28;20532;-82
2023/06/13 06:50:04;;;;;;;11.93;5.27;;;;;;;22.86;79.33;94430.28;5054633;28;20478;-82
2023/06/13 06:52:32;;;;;;;6.13;5.63;;;;;;;23.01;79.65;94424.59;5054989;28;20472;-82
2023/06/13 06:54:59;;;;;;;6.17;5.43;;;;;;;22.89;80.40;94415.66;5019763;28;20444;-82
2023/06/13 06:57:27;;;;;;;5.47;4.80;;;;;;;23.07;80.80;94420.22;5019324;28;20459;-82
2023/06/13 06:59:53;;;;;;;4.90;4.60;;;;;;;23.38;80.55;94430.88;5054643;28;20916;-82
2023/06/13 07:02:20;;;;;;;6.87;6.27;;;;;;;23.61;79.98;94430.28;5054481;28;20441;-82
2023/06/13 07:04:47;;;;;;;7.80;6.27;;;;;;;23.83;78.44;94436.03;5054332;28;20480;-82
2023/06/13 07:07:14;;;;;;;7.60;5.83;;;;;;;23.96;78.55;94430.53;5054631;28;20777;-82
2023/06/13 07:09:42;;;;;;;5.37;4.90;;;;;;;23.94;77.91;94435.28;5035531;28;20524;-81
2023/06/13 07:12:09;;;;;;;5.70;4.90;;;;;;;23.71;76.90;94432.47;5054352;28;20456;-82
2023/06/13 07:14:36;;;;;;;5.30;4.90;;;;;;;23.96;75.93;94430.53;5054098;28;20453;-82
2023/06/13 07:17:03;;;;;;;5.40;4.90;;;;;;;23.62;75.50;94425.75;5054572;28;20871;-82
2023/06/13 07:19:30;;;;;;;6.70;5.20;;;;;;;23.29;76.37;94418.00;5019220;28;20543;-81
2023/06/13 07:21:57;;;;;;;5.40;5.00;;;;;;;23.06;77.35;94427.44;5054071;28;20459;-82
2023/06/13 07:24:24;;;;;;;6.63;5.27;;;;;;;22.90;78.70;94417.28;5054251;28;20831;-82
2023/06/13 07:26:52;;;;;;;5.93;5.10;;;;;;;22.72;79.10;94423.34;5053848;28;20447;-82
2023/06/13 07:29:19;;;;;;;5.60;5.10;;;;;;;22.76;80.72;94413.03;5053957;28;20459;-82
2023/06/13 07:31:45;;;;;;;8.00;5.23;;;;;;;22.69;78.98;94417.59;5053945;28;20452;-82
2023/06/13 07:34:12;;;;;;;8.20;5.87;;;;;;;22.55;79.62;94417.72;5053701;28;20453;-82
2023/06/13 07:36:39;;;;;;;5.93;5.33;;;;;;;22.32;81.02;94411.25;5054084;28;20455;-81
2023/06/13 07:39:13;;;;;;;10.60;5.10;;;;;;;22.26;85.43;94404.88;5053950;28;20452;-82
2023/06/13 07:41:44;;;;;;;5.77;5.37;;;;;;;21.83;84.13;94408.13;5053626;28;20448;-82
2023/06/13 07:44:12;;;;;;;7.27;5.20;;;;;;;21.99;84.88;94404.19;5052752;28;20526;-82
2023/06/13 07:46:39;;;;;;;9.00;6.20;;;;;;;21.97;83.83;94406.22;5053353;28;20442;-82
2023/06/13 07:49:06;;;;;;;7.03;5.67;;;;;;;22.00;83.96;94403.16;5053993;28;20431;-82
2023/06/13 07:51:32;;;;;;;6.90;5.50;;;;;;;22.02;83.06;94406.44;5053912;28;20450;-82
2023/06/13 07:53:59;;;;;;;16.57;6.43;;;;;;;22.03;84.17;94413.41;5053600;28;20501;-82
2023/06/13 07:56:26;;;;;;;16.20;6.60;;;;;;;22.11;84.67;94410.53;5053422;28;20439;-82
2023/06/13 07:58:53;;;;;;;9.43;5.30;;;;;;;22.21;84.14;94404.72;5053424;28;20451;-82
2023/06/13 08:01:22;;;;;;;6.43;5.93;;;;;;;22.19;82.85;94401.44;5053437;28;20834;-82
2023/06/13 08:03:49;;;;;;;7.00;5.73;;;;;;;22.28;81.97;94396.69;5018346;28;20579;-82
2023/06/13 08:06:16;;;;;;;11.03;5.17;;;;;;;22.16;79.88;94408.03;5053437;28;20453;-82
2023/06/13 08:08:43;;;;;;;8.10;6.33;;;;;;;22.32;81.55;94405.91;5053299;28;20564;-82
2023/06/13 08:11:10;;;;;;;8.13;5.37;;;;;;;22.23;80.71;94408.81;5053264;28;20869;-82
2023/06/13 08:13:37;;;;;;;5.07;4.67;;;;;;;22.36;80.87;94402.59;5053405;28;20831;-82
2023/06/13 08:16:04;;;;;;;6.30;5.50;;;;;;;22.30;78.46;94410.66;5053767;28;20452;-82
2023/06/13 08:18:32;;;;;;;6.03;5.10;;;;;;;22.26;78.38;94402.22;5053177;28;20513;-82
2023/06/13 08:20:59;;;;;;;6.63;5.57;;;;;;;22.14;78.64;94410.09;5053600;28;20447;-82
2023/06/13 08:23:25;;;;;;;7.40;6.30;;;;;;;22.03;79.22;94408.06;5053233;28;20451;-82
2023/06/13 08:25:52;;;;;;;6.73;6.20;;;;;;;21.80;79.36;94402.41;5054905;28;20475;-82
2023/06/13 08:28:19;;;;;;;5.83;5.40;;;;;;;21.90;80.42;94397.41;5055031;28;20460;-81
2023/06/13 08:30:47;;;;;;;6.80;6.20;;;;;;;21.92;80.49;94393.50;5053551;28;20516;-82
2023/06/13 08:33:14;;;;;;;6.70;5.88;;;;;;;22.10;80.75;94384.84;5053229;28;20439;-82
2023/06/13 08:35:42;;;;;;;5.90;5.40;;;;;;;22.23;79.00;94397.28;5053490;28;20724;-82
2023/06/13 08:38:09;;;;;;;4.87;4.50;;;;;;;22.38;80.33;94394.34;5034484;28;20496;-82
2023/06/13 08:40:36;;;;;;;5.90;5.20;;;;;;;22.52;79.38;94395.91;5053815;28;20455;-82
2023/06/13 08:43:03;;;;;;;6.83;6.13;;;;;;;22.70;78.86;94395.16;5053649;28;20455;-82
2023/06/13 08:45:30;;;;;;;6.73;5.80;;;;;;;22.86;81.91;94394.69;5053125;28;20482;-82
2023/06/13 08:47:58;;;;;;;9.57;7.20;;;;;;;22.75;80.17;94393.47;5053192;28;20450;-82
2023/06/13 08:50:26;;;;;;;10.17;9.03;;;;;;;22.58;80.64;94399.59;5052956;28;20949;-81
2023/06/13 08:52:55;;;;;;;11.63;9.40;;;;;;;22.37;82.75;94396.22;5052546;28;20447;-82
2023/06/13 08:55:24;;;;;;;10.37;9.37;;;;;;;22.22;82.68;94401.81;5052467;28;20443;-84
2023/06/13 08:57:53;;;;;;;19.70;10.80;;;;;;;22.15;84.61;94394.88;5052226;28;20536;-81
2023/06/13 09:00:20;;;;;;;12.47;10.50;;;;;;;22.19;85.24;94396.09;5052419;28;20458;-81
2023/06/13 09:02:48;;;;;;;14.40;9.10;;;;;;;22.14;84.40;94420.78;5052143;28;20453;-81
2023/06/13 09:05:17;;;;;;;7.70;7.00;;;;;;;22.16;85.04;94412.56;5052152;28;20484;-81
2023/06/13 09:07:45;;;;;;;8.77;6.73;;;;;;;21.98;84.49;94410.56;5052437;28;20855;-81
2023/06/13 09:10:14;;;;;;;8.17;6.57;;;;;;;21.99;84.48;94404.19;5052270;28;20475;-81
2023/06/13 09:12:41;;;;;;;8.67;7.30;;;;;;;22.16;86.02;94400.00;5052353;28;20462;-82
2023/06/13 09:15:10;;;;;;;9.70;6.97;;;;;;;22.30;84.89;94394.63;5051886;28;20449;-81
2023/06/13 09:17:36;;;;;;;6.23;5.73;;;;;;;22.29;82.19;94401.00;5052053;28;20516;-81
2023/06/13 09:20:05;;;;;;;7.10;6.10;;;;;;;22.34;81.72;94406.50;5052016;28;20992;-81
2023/06/13 09:22:33;;;;;;;6.53;5.70;;;;;;;22.38;81.14;94413.06;5033355;28;20450;-81
2023/06/13 09:25:01;;;;;;;7.67;7.00;;;;;;;22.38;83.13;94405.88;5051984;28;20546;-82
2023/06/13 09:27:29;;;;;;;7.87;6.83;;;;;;;22.39;82.58;94401.34;5051982;28;20534;-82
2023/06/13 09:29:58;;;;;;;10.20;8.03;;;;;;;22.34;81.63;94398.50;5052058;28;20873;-81
2023/06/13 09:32:25;;;;;;;9.53;8.53;;;;;;;;;;5051857;28;20450;-82
2023/06/13 09:34:52;;;;;;;7.93;7.20;;;;;;;22.33;82.56;94399.53;5051894;28;20491;-82
2023/06/13 09:37:19;;;;;;;10.23;7.47;;;;;;;;;;5051913;28;20461;-82
2023/06/13 09:39:50;;;;;;;16.00;8.70;;;;;;;22.19;85.34;94410.28;5051799;28;20502;-81
2023/06/13 09:42:21;;;;;;;17.03;11.07;;;;;;;22.14;88.45;94412.78;5051710;28;20982;-81
2023/06/13 09:44:50;;;;;;;11.97;10.67;;;;;;;22.15;91.98;94411.72;5051811;28;20960;-82
2023/06/13 09:47:22;;;;;;;12.80;11.17;;;;;;;22.04;92.22;94401.72;5051808;28;20453;-81
2023/06/13 09:49:52;;;;;;;15.50;13.00;;;;;;;21.88;94.55;94399.50;5051714;28;20437;-82
2023/06/13 09:52:24;;;;;;;13.90;12.47;;;;;;;21.72;94.24;94405.31;5052016;28;20440;-82
2023/06/13 09:54:51;;;;;;;18.10;12.67;;;;;;;21.68;95.57;94401.41;5051607;28;20539;-82
2023/06/13 09:57:18;;;;;;;14.60;12.50;;;;;;;21.54;94.41;94401.44;5051633;28;20487;-82
2023/06/13 09:59:47;;;;;;;13.10;9.07;;;;;;;21.56;95.38;94404.72;5016609;28;20527;-82
2023/06/13 10:02:16;;;;;;;10.03;9.07;;;;;;;21.59;95.43;94398.97;5052114;28;20541;-82
2023/06/13 10:04:43;;;;;;;11.10;9.30;;;;;;;21.70;96.82;94402.84;5051514;28;20490;-81
2023/06/13 10:07:12;;;;;;;8.57;7.70;;;;;;;21.74;97.15;94406.75;5052019;28;20439;-81
2023/06/13 10:09:39;;;;;;;8.83;7.93;;;;;;;21.75;97.00;94407.56;5054782;28;20480;-81
2023/06/13 10:12:12;;;;;;;9.47;8.17;;;;;;;21.70;96.52;94405.53;5055365;28;20443;-81
2023/06/13 10:14:43;;;;;;;11.27;8.80;;;;;;;21.64;96.98;94392.97;5055193;28;20945;-81
2023/06/13 10:17:18;;;;;;;10.10;7.80;;;;;;;21.59;97.81;94398.13;5036674;28;20436;-82
2023/06/13 10:19:52;;;;;;;11.00;8.73;;;;;;;21.52;98.12;94398.16;5055415;28;20478;-82
2023/06/13 10:22:20;;;;;;;10.43;8.17;;;;;;;21.52;98.60;94400.84;5055401;28;20494;-82
2023/06/13 10:24:51;;;;;;;11.47;10.17;;;;;;;21.50;98.84;94408.25;5055119;28;20587;-82
2023/06/13 10:27:20;;;;;;;17.60;10.33;;;;;;;21.45;100.00;94410.72;5055576;28;20457;-82
2023/06/13 10:30:08;;;;;;;12.73;10.97;;;;;;;21.42;100.00;94405.78;5055053;28;20527;-82
2023/06/13 10:32:52;;;;;;;11.73;10.37;;;;;;;21.32;100.00;94408.88;4993460;28;20964;-82
2023/06/13 10:35:51;;;;;;;14.20;12.67;;;;;;;21.31;100.00;94409.91;4960890;28;20998;-83
2023/06/13 10:38:54;;;;;;;22.90;15.83;;;;;;;21.14;100.00;94400.66;4993217;28;20445;-81
2023/06/13 10:41:47;;;;;;;21.50;16.60;;;;;;;21.03;100.00;94401.28;4993282;28;20443;-82
2023/06/13 10:44:18;;;;;;;16.03;13.83;;;;;;;20.91;100.00;94390.41;4935111;29;21019;-82
2023/06/13 10:46:45;;;;;;;14.87;11.67;;;;;;;20.77;100.00;94390.59;4935143;29;20449;-82
2023/06/13 10:49:15;;;;;;;15.60;12.37;;;;;;;20.74;100.00;94402.50;4903231;29;20551;-82
2023/06/13 10:51:44;;;;;;;14.40;11.70;;;;;;;20.73;100.00;94395.53;4935285;29;20543;-82
2023/06/13 10:54:12;;;;;;;16.37;9.40;;;;;;;20.75;100.00;94396.13;4935086;29;20536;-82
2023/06/13 10:56:42;;;;;;;10.10;8.63;;;;;;;20.70;100.00;94394.09;4935011;29;20461;-82
2023/06/13 10:59:10;;;;;;;12.90;7.37;;;;;;;20.54;100.00;94393.69;4935120;29;20470;-82
2023/06/13 11:01:38;;;;;;;9.90;6.77;;;;;;;20.38;100.00;94397.50;4934930;29;20453;-82
2023/06/13 11:04:09;;;;;;;9.60;7.87;;;;;;;20.47;100.00;94390.16;4935005;29;20460;-82
2023/06/13 11:06:37;;;;;;;9.00;7.03;;;;;;;20.62;100.00;94380.97;4934882;29;20493;-81
2023/06/13 11:09:27;;;;;;;11.20;7.40;;;;;;;20.81;100.00;94392.66;4946359;28;20454;-82
2023/06/13 11:11:55;;;;;;;6.80;6.10;;;;;;;20.88;100.00;94398.00;4915756;29;20485;-82
2023/06/13 11:14:24;;;;;;;11.53;6.67;;;;;;;21.00;99.24;94393.69;4915813;29;20465;-82
2023/06/13 11:16:51;;;;;;;5.70;5.20;;;;;;;21.05;96.77;94393.88;4915746;29;20454;-81
2023/06/13 11:19:21;;;;;;;5.93;5.33;;;;;;;21.03;93.33;94391.44;4915368;29;20463;-81
2023/06/13 11:21:53;;;;;;;5.33;4.93;;;;;;;21.21;94.78;94392.66;4968038;28;20447;-81
2023/06/13 11:24:20;;;;;;;5.90;5.30;;;;;;;21.39;92.11;94384.81;4992613;28;20447;-81
2023/06/13 11:26:48;;;;;;;5.33;4.90;;;;;;;21.53;92.56;94385.63;4992350;28;21022;-81
2023/06/13 11:29:17;;;;;;;7.90;5.40;;;;;;;21.59;88.40;94379.44;4992405;28;20459;-82
2023/06/13 11:31:44;;;;;;;4.60;4.30;;;;;;;21.71;87.74;94382.31;4944234;28;20448;-81
2023/06/13 11:34:16;;;;;;;5.20;4.80;;;;;;;21.72;84.23;94389.28;4992178;28;20452;-81
2023/06/13 11:36:44;;;;;;;4.97;4.60;;;;;;;22.00;86.50;94386.31;4992224;28;20519;-81
2023/06/13 11:39:12;;;;;;;3.70;3.50;;;;;;;22.16;78.96;94396.53;4992023;28;20522;-82
2023/06/13 11:41:40;;;;;;;3.90;3.60;;;;;;;22.27;76.38;94403.06;4944346;28;20888;-82
2023/06/13 11:44:09;;;;;;;4.40;4.00;;;;;;;22.46;78.11;94404.78;4991959;28;20564;-82
2023/06/13 11:46:43;;;;;;;3.83;3.53;;;;;;;22.64;77.23;94407.56;4992094;28;20908;-82
2023/06/13 11:49:12;;;;;;;4.63;4.23;;;;;;;22.56;74.77;94402.47;5030067;28;20543;-82